createdAt,value
2019-02-15T00:00:53.135Z,14.13
2019-02-15T00:05:59.284Z,11.57
2019-02-15T00:11:06.597Z,15.43
2019-02-15T00:16:12.779Z,10.67
2019-02-15T00:21:21.017Z,11.80
2019-02-15T00:26:27.084Z,10.13
2019-02-15T00:31:33.145Z,12.03
2019-02-15T00:36:39.253Z,13.67
2019-02-15T00:41:46.539Z,13.17
2019-02-15T00:47:19.365Z,10.13
2019-02-15T00:52:39.131Z,10.97
2019-02-15T00:58:03.965Z,11.17
2019-02-15T01:03:27.664Z,12.37
2019-02-15T01:08:55.780Z,10.30
2019-02-15T01:14:01.998Z,10.80
2019-02-15T01:19:07.969Z,10.93
2019-02-15T01:24:13.934Z,9.40
2019-02-15T01:29:41.557Z,8.80
2019-02-15T01:35:05.168Z,11.70
2019-02-15T01:40:26.703Z,8.70
2019-02-15T01:45:43.938Z,10.27
2019-02-15T01:50:49.959Z,8.73
2019-02-15T01:55:55.837Z,9.50
2019-02-15T02:01:01.999Z,7.73
2019-02-15T02:06:08.187Z,9.93
2019-02-15T02:11:14.353Z,7.30
2019-02-15T02:16:20.287Z,6.97
2019-02-15T02:21:26.248Z,8.93
2019-02-15T02:26:32.208Z,9.30
2019-02-15T02:31:38.274Z,8.97
2019-02-15T02:36:51.227Z,7.43
2019-02-15T02:41:57.181Z,7.33
2019-02-15T02:47:03.062Z,7.57
2019-02-15T02:52:09.345Z,7.17
2019-02-15T02:57:15.359Z,7.60
2019-02-15T03:02:21.352Z,8.87
2019-02-15T03:07:27.259Z,7.63
2019-02-15T03:12:33.207Z,8.43
2019-02-15T03:17:39.230Z,8.13
2019-02-15T03:22:45.358Z,10.13
2019-02-15T03:27:51.306Z,11.10
2019-02-15T03:32:57.345Z,8.00
2019-02-15T03:38:11.132Z,8.17
2019-02-15T03:43:17.310Z,8.93
2019-02-15T03:48:23.488Z,6.43
2019-02-15T03:53:29.528Z,6.17
2019-02-15T03:58:35.474Z,6.23
2019-02-15T04:03:41.432Z,8.70
2019-02-15T04:08:47.416Z,6.80
2019-02-15T04:13:53.592Z,5.53
2019-02-15T04:18:59.568Z,5.87
2019-02-15T04:24:05.514Z,9.97
2019-02-15T04:29:11.577Z,7.43
2019-02-15T04:34:17.557Z,6.40
2019-02-15T04:39:23.744Z,6.73
2019-02-15T04:44:29.821Z,5.80
2019-02-15T04:49:35.940Z,4.23
2019-02-15T04:54:41.949Z,7.30
2019-02-15T04:59:47.929Z,5.17
2019-02-15T05:04:54.008Z,4.13
2019-02-15T05:09:59.992Z,4.70
2019-02-15T05:15:05.957Z,7.00
2019-02-15T05:20:12.218Z,4.60
2019-02-15T05:25:18.206Z,4.93
2019-02-15T05:30:24.226Z,5.33
2019-02-15T05:35:30.244Z,6.43
2019-02-15T05:40:36.317Z,6.23
2019-02-15T05:45:42.508Z,11.53
2019-02-15T05:50:48.587Z,8.17
2019-02-15T05:55:54.477Z,9.03
2019-02-15T06:01:01.734Z,5.77
2019-02-15T06:06:07.753Z,7.30
2019-02-15T06:11:13.680Z,7.87
2019-02-15T06:16:19.669Z,6.83
2019-02-15T06:21:25.849Z,6.77
2019-02-15T06:26:31.924Z,8.90
2019-02-15T06:31:37.886Z,7.10
2019-02-15T06:36:43.889Z,8.00
2019-02-15T06:41:49.993Z,6.40
2019-02-15T06:46:55.910Z,7.70
2019-02-15T06:52:02.097Z,6.17
2019-02-15T06:57:08.204Z,11.97
2019-02-15T07:02:36.107Z,8.60
2019-02-15T07:07:42.096Z,12.07
2019-02-15T07:12:48.190Z,6.20
2019-02-15T07:17:54.169Z,12.73
2019-02-15T07:23:00.080Z,5.37
2019-02-15T07:28:06.093Z,7.03
2019-02-15T07:33:12.090Z,10.03
2019-02-15T07:38:18.155Z,7.07
2019-02-15T07:43:24.180Z,5.77
2019-02-15T07:48:30.120Z,6.97
2019-02-15T07:53:36.109Z,12.53
2019-02-15T07:58:41.946Z,11.43
2019-02-15T08:03:48.122Z,12.17
2019-02-15T08:08:54.176Z,12.10
2019-02-15T08:14:00.192Z,31.20
2019-02-15T08:19:06.247Z,42.77
2019-02-15T08:24:12.247Z,35.77
2019-02-15T08:29:18.412Z,27.93
2019-02-15T08:34:24.463Z,21.57
2019-02-15T08:39:30.440Z,16.90
2019-02-15T08:44:36.477Z,15.83
2019-02-15T08:49:42.508Z,11.27
2019-02-15T08:54:49.496Z,8.80
2019-02-15T08:59:55.549Z,5.90
2019-02-15T09:05:02.141Z,5.13
2019-02-15T09:10:09.868Z,6.63
2019-02-15T09:15:18.428Z,15.23
2019-02-15T09:20:24.468Z,8.60
2019-02-15T09:25:30.334Z,4.07
2019-02-15T09:30:36.366Z,2.60
2019-02-15T09:35:42.280Z,4.50
2019-02-15T09:40:48.468Z,2.37
2019-02-15T09:45:54.524Z,1.70
2019-02-15T09:51:00.555Z,1.63
2019-02-15T09:56:06.517Z,2.50
2019-02-15T10:01:12.733Z,0.93
2019-02-15T10:06:18.838Z,0.80
2019-02-15T10:11:24.919Z,0.80
2019-02-15T10:16:31.516Z,1.10
2019-02-15T10:21:37.811Z,0.90
2019-02-15T10:26:43.860Z,5.12
2019-02-15T10:31:49.930Z,1.25
2019-02-15T10:36:56.087Z,1.80
2019-02-15T10:42:02.248Z,2.17
2019-02-15T10:47:13.980Z,1.10
2019-02-15T10:52:15.762Z,2.90
2019-02-15T10:57:21.873Z,1.37
2019-02-15T11:02:27.917Z,0.80
2019-02-15T11:07:33.895Z,3.50
2019-02-15T11:12:39.843Z,4.70
2019-02-15T11:17:45.974Z,1.77
2019-02-15T11:22:51.997Z,1.90
2019-02-15T11:27:57.983Z,1.43
2019-02-15T11:33:04.037Z,2.30
2019-02-15T11:38:10.032Z,1.37
2019-02-15T11:43:16.087Z,2.13
2019-02-15T11:48:22.188Z,2.00
2019-02-15T11:53:28.253Z,3.13
2019-02-15T11:58:34.455Z,2.53
2019-02-15T12:03:40.424Z,1.50
2019-02-15T12:08:46.579Z,1.40
2019-02-15T12:13:52.668Z,2.83
2019-02-15T12:18:58.630Z,4.73
2019-02-15T12:24:04.684Z,3.27
2019-02-15T12:29:10.854Z,4.83
2019-02-15T12:34:16.956Z,1.60
2019-02-15T12:39:23.027Z,0.80
2019-02-15T12:44:29.019Z,1.10
2019-02-15T12:49:34.957Z,1.43
2019-02-15T12:54:40.993Z,5.60
2019-02-15T12:59:47.089Z,2.97
2019-02-15T13:04:53.199Z,1.73
2019-02-15T13:09:59.164Z,1.40
2019-02-15T13:15:05.321Z,2.10
2019-02-15T13:20:11.608Z,0.80
2019-02-15T13:25:18.670Z,18.43
2019-02-15T13:30:24.734Z,8.03
2019-02-15T13:35:30.663Z,4.43
2019-02-15T13:40:36.843Z,2.83
2019-02-15T13:45:42.833Z,1.30
2019-02-15T13:50:48.700Z,1.97
2019-02-15T13:55:54.688Z,5.40
2019-02-15T14:01:00.730Z,2.80
2019-02-15T14:06:06.893Z,11.63
2019-02-15T14:11:13.079Z,1.30
2019-02-15T14:16:19.041Z,1.77
2019-02-15T14:21:26.052Z,6.43
2019-02-15T14:26:32.018Z,1.77
2019-02-15T14:31:38.153Z,4.70
2019-02-15T14:36:44.311Z,4.37
2019-02-15T14:41:50.359Z,2.87
2019-02-15T14:46:56.266Z,8.57
2019-02-15T14:52:02.145Z,5.30
2019-02-15T14:57:08.179Z,8.83
2019-02-15T15:02:14.162Z,6.37
2019-02-15T15:07:20.109Z,10.23
2019-02-15T15:12:26.079Z,8.67
2019-02-15T15:17:32.187Z,6.67
2019-02-15T15:22:38.226Z,5.47
2019-02-15T15:27:44.444Z,3.77
2019-02-15T15:32:50.481Z,6.83
2019-02-15T15:37:56.660Z,2.77
2019-02-15T15:43:02.670Z,4.20
2019-02-15T15:48:08.621Z,3.63
2019-02-15T15:53:14.766Z,5.90
2019-02-15T15:58:20.838Z,5.77
2019-02-15T16:03:26.825Z,7.37
2019-02-15T16:08:32.812Z,5.07
2019-02-15T16:13:38.942Z,7.93
2019-02-15T16:18:45.249Z,5.37
2019-02-15T16:23:51.324Z,6.70
2019-02-15T16:28:57.422Z,4.30
2019-02-15T16:34:03.335Z,5.47
2019-02-15T16:39:09.279Z,10.97
2019-02-15T16:44:15.686Z,12.23
2019-02-15T16:49:21.909Z,15.67
2019-02-15T16:54:27.945Z,17.97
2019-02-15T16:59:34.089Z,17.03
2019-02-15T17:04:40.161Z,32.17
2019-02-15T17:09:46.164Z,30.17
2019-02-15T17:14:52.291Z,25.67
2019-02-15T17:19:58.459Z,20.60
2019-02-15T17:25:04.578Z,15.30
2019-02-15T17:30:10.852Z,11.07
2019-02-15T17:35:16.992Z,16.00
2019-02-15T17:40:23.176Z,15.23
2019-02-15T17:45:29.256Z,15.03
2019-02-15T17:50:35.236Z,15.13
2019-02-15T17:55:41.342Z,16.60
2019-02-15T18:00:47.469Z,23.63
2019-02-15T18:05:53.539Z,20.80
2019-02-15T18:10:59.639Z,13.53
2019-02-15T18:16:05.602Z,13.43
2019-02-15T18:21:11.560Z,18.27
2019-02-15T18:26:17.628Z,15.37
2019-02-15T18:31:23.707Z,18.80
2019-02-15T18:36:29.760Z,13.73
2019-02-15T18:41:35.760Z,10.07
2019-02-15T18:46:41.651Z,8.03
2019-02-15T18:51:47.499Z,8.23
2019-02-15T18:56:53.512Z,8.97
2019-02-15T19:01:59.487Z,8.10
2019-02-15T19:07:05.719Z,10.40
2019-02-15T19:12:11.918Z,8.33
2019-02-15T19:17:18.082Z,18.23
2019-02-15T19:22:24.137Z,28.07
2019-02-15T19:27:30.269Z,11.10
2019-02-15T19:32:36.236Z,14.60
2019-02-15T19:37:43.208Z,10.07
2019-02-15T19:42:50.489Z,9.27
2019-02-15T19:47:58.331Z,12.73
2019-02-15T19:53:04.182Z,8.33
2019-02-15T19:58:10.461Z,7.50
2019-02-15T20:03:16.656Z,11.67
2019-02-15T20:08:22.634Z,7.90
2019-02-15T20:13:28.949Z,8.30
2019-02-15T20:18:35.180Z,9.37
2019-02-15T20:23:41.292Z,8.77
2019-02-15T20:28:47.221Z,10.63
2019-02-15T20:33:53.312Z,14.10
2019-02-15T20:38:59.387Z,9.93
2019-02-15T20:44:05.441Z,9.23
2019-02-15T20:49:11.563Z,10.20
2019-02-15T20:54:17.700Z,10.33
2019-02-15T20:59:23.972Z,11.03
2019-02-15T21:04:30.046Z,8.93
2019-02-15T21:09:36.009Z,8.90
2019-02-15T21:14:42.217Z,9.17
2019-02-15T21:19:48.269Z,7.73
2019-02-15T21:24:54.390Z,9.83
2019-02-15T21:30:00.520Z,10.13
2019-02-15T21:35:06.597Z,9.37
2019-02-15T21:40:13.807Z,7.83
2019-02-15T21:45:19.654Z,11.57
2019-02-15T21:50:25.617Z,9.27
2019-02-15T21:55:31.517Z,10.07
2019-02-15T22:00:37.629Z,8.13
2019-02-15T22:05:43.631Z,9.67
2019-02-15T22:10:49.836Z,8.03
2019-02-15T22:15:55.780Z,6.60
2019-02-15T22:21:01.927Z,10.00
2019-02-15T22:26:08.045Z,8.83
2019-02-15T22:31:14.232Z,8.40
2019-02-15T22:36:20.210Z,6.53
2019-02-15T22:41:26.202Z,9.27
2019-02-15T22:46:32.196Z,9.90
2019-02-15T22:51:38.236Z,12.43
2019-02-15T22:56:44.392Z,9.40
2019-02-15T23:01:50.490Z,11.23
2019-02-15T23:06:56.471Z,10.17
2019-02-15T23:12:03.349Z,9.40
2019-02-15T23:17:09.444Z,7.87
2019-02-15T23:22:15.510Z,8.10
2019-02-15T23:27:21.507Z,11.13
2019-02-15T23:32:27.663Z,11.50
2019-02-15T23:37:33.816Z,10.53
2019-02-15T23:42:39.908Z,11.83
2019-02-15T23:47:45.952Z,14.33
2019-02-15T23:52:52.117Z,10.53
2019-02-15T23:57:58.219Z,13.73
